sensor_id;sensor_type;location;lat;lon;timestamp;pressure;altitude;pressure_sealevel;temperature;humidity
57779;BME280;43608;49.486;9.640;2022-08-21T00:00:07;98757.19;;;14.36;89.01
57779;BME280;43608;49.486;9.640;2022-08-21T00:00:39;98761.72;;;14.34;89.04
57779;BME280;43608;49.486;9.640;2022-08-21T00:01:14;98756.41;;;14.31;89.09
57779;BME280;43608;49.486;9.640;2022-08-21T00:01:45;98758.22;;;14.31;89.09
57779;BME280;43608;49.486;9.640;2022-08-21T00:02:16;98759.13;;;14.28;89.15
57779;BME280;43608;49.486;9.640;2022-08-21T00:02:48;98759.13;;;14.28;89.08
57779;BME280;43608;49.486;9.640;2022-08-21T00:03:19;98756.50;;;14.27;89.11
57779;BME280;43608;49.486;9.640;2022-08-21T00:03:49;98758.28;;;14.26;89.12
57779;BME280;43608;49.486;9.640;2022-08-21T00:04:20;98755.69;;;14.23;88.95
57779;BME280;43608;49.486;9.640;2022-08-21T00:04:50;98691.50;;;13.85;89.12
57779;BME280;43608;49.486;9.640;2022-08-21T00:05:21;98755.72;;;14.21;89.24
57779;BME280;43608;49.486;9.640;2022-08-21T00:05:52;98758.38;;;14.20;89.31
57779;BME280;43608;49.486;9.640;2022-08-21T00:06:23;98758.41;;;14.18;89.48
57779;BME280;43608;49.486;9.640;2022-08-21T00:06:53;98755.72;;;14.20;89.45
57779;BME280;43608;49.486;9.640;2022-08-21T00:07:24;98756.66;;;14.19;89.57
57779;BME280;43608;49.486;9.640;2022-08-21T00:07:54;98749.56;;;14.18;89.43
57779;BME280;43608;49.486;9.640;2022-08-21T00:08:25;98756.66;;;14.17;89.39
57779;BME280;43608;49.486;9.640;2022-08-21T00:08:55;98754.91;;;14.16;89.34
57779;BME280;43608;49.486;9.640;2022-08-21T00:09:25;98757.59;;;14.16;89.27
57779;BME280;43608;49.486;9.640;2022-08-21T00:09:56;98754.94;;;14.13;89.31
57779;BME280;43608;49.486;9.640;2022-08-21T00:10:26;98757.59;;;14.15;89.10
57779;BME280;43608;49.486;9.640;2022-08-21T00:10:56;98761.19;;;14.14;89.36
57779;BME280;43608;49.486;9.640;2022-08-21T00:11:27;98763.84;;;14.12;89.33
57779;BME280;43608;49.486;9.640;2022-08-21T00:11:57;98759.44;;;14.11;89.40
57779;BME280;43608;49.486;9.640;2022-08-21T00:12:27;98761.22;;;14.11;89.40
57779;BME280;43608;49.486;9.640;2022-08-21T00:12:58;98769.25;;;14.09;89.49
57779;BME280;43608;49.486;9.640;2022-08-21T00:13:29;98760.38;;;14.09;89.41
57779;BME280;43608;49.486;9.640;2022-08-21T00:14:00;98762.16;;;14.08;89.67
57779;BME280;43608;49.486;9.640;2022-08-21T00:14:31;98759.47;;;14.08;89.61
57779;BME280;43608;49.486;9.640;2022-08-21T00:15:02;98759.50;;;14.07;89.56
57779;BME280;43608;49.486;9.640;2022-08-21T00:15:34;98763.97;;;14.06;89.45
57779;BME280;43608;49.486;9.640;2022-08-21T00:16:05;98763.06;;;14.05;89.38
57779;BME280;43608;49.486;9.640;2022-08-21T00:16:35;98765.78;;;14.04;89.50
57779;BME280;43608;49.486;9.640;2022-08-21T00:17:06;98755.13;;;14.04;89.56
57779;BME280;43608;49.486;9.640;2022-08-21T00:17:36;98756.91;;;14.03;89.54
57779;BME280;43608;49.486;9.640;2022-08-21T00:18:07;98757.81;;;14.02;89.64
57779;BME280;43608;49.486;9.640;2022-08-21T00:18:38;98756.94;;;14.00;89.53
57779;BME280;43608;49.486;9.640;2022-08-21T00:19:08;98756.94;;;14.02;89.72
57779;BME280;43608;49.486;9.640;2022-08-21T00:19:39;98762.28;;;14.00;89.62
57779;BME280;43608;49.486;9.640;2022-08-21T00:20:10;98756.97;;;13.99;89.57
57779;BME280;43608;49.486;9.640;2022-08-21T00:20:41;98761.44;;;13.98;89.66
57779;BME280;43608;49.486;9.640;2022-08-21T00:21:12;98760.53;;;13.98;89.55
57779;BME280;43608;49.486;9.640;2022-08-21T00:21:42;98753.47;;;13.97;89.56
57779;BME280;43608;49.486;9.640;2022-08-21T00:22:13;98757.03;;;13.96;89.69
57779;BME280;43608;49.486;9.640;2022-08-21T00:22:43;98755.28;;;13.95;89.60
57779;BME280;43608;49.486;9.640;2022-08-21T00:23:13;98753.53;;;13.92;89.62
57779;BME280;43608;49.486;9.640;2022-08-21T00:23:44;98750.88;;;13.92;89.79
57779;BME280;43608;49.486;9.640;2022-08-21T00:24:14;98751.78;;;13.91;89.80
57779;BME280;43608;49.486;9.640;2022-08-21T00:24:44;98750.91;;;13.91;89.68
57779;BME280;43608;49.486;9.640;2022-08-21T00:25:15;98754.47;;;13.90;89.70
57779;BME280;43608;49.486;9.640;2022-08-21T00:25:46;98749.19;;;13.88;89.88
57779;BME280;43608;49.486;9.640;2022-08-21T00:26:16;98750.03;;;13.88;89.65
57779;BME280;43608;49.486;9.640;2022-08-21T00:26:47;98751.88;;;13.86;89.79
57779;BME280;43608;49.486;9.640;2022-08-21T00:27:17;98755.44;;;13.85;89.72
57779;BME280;43608;49.486;9.640;2022-08-21T00:27:47;98749.22;;;13.83;89.99
57779;BME280;43608;49.486;9.640;2022-08-21T00:28:18;98751.03;;;13.83;89.95
57779;BME280;43608;49.486;9.640;2022-08-21T00:28:48;98751.94;;;13.82;89.90
57779;BME280;43608;49.486;9.640;2022-08-21T00:29:19;98754.63;;;13.80;89.82
57779;BME280;43608;49.486;9.640;2022-08-21T00:29:49;98746.63;;;13.80;90.03
57779;BME280;43608;49.486;9.640;2022-08-21T00:30:20;98744.00;;;13.79;90.00
57779;BME280;43608;49.486;9.640;2022-08-21T00:30:51;98746.69;;;13.77;90.09
57779;BME280;43608;49.486;9.640;2022-08-21T00:31:21;98743.13;;;13.77;90.01
57779;BME280;43608;49.486;9.640;2022-08-21T00:31:52;98748.47;;;13.77;90.19
57779;BME280;43608;49.486;9.640;2022-08-21T00:32:24;98752.94;;;13.75;90.24
57779;BME280;43608;49.486;9.640;2022-08-21T00:32:55;98748.53;;;13.74;90.30
57779;BME280;43608;49.486;9.640;2022-08-21T00:33:25;98747.63;;;13.75;90.44
57779;BME280;43608;49.486;9.640;2022-08-21T00:33:55;98752.94;;;13.75;90.41
57779;BME280;43608;49.486;9.640;2022-08-21T00:34:26;98743.19;;;13.74;90.29
57779;BME280;43608;49.486;9.640;2022-08-21T00:34:56;98749.38;;;13.74;90.43
57779;BME280;43608;49.486;9.640;2022-08-21T00:35:29;98748.53;;;13.74;90.22
57779;BME280;43608;49.486;9.640;2022-08-21T00:36:00;98750.28;;;13.73;90.37
57779;BME280;43608;49.486;9.640;2022-08-21T00:36:30;98749.41;;;13.73;90.19
57779;BME280;43608;49.486;9.640;2022-08-21T00:37:00;98744.13;;;13.71;90.43
57779;BME280;43608;49.486;9.640;2022-08-21T00:37:31;98748.56;;;13.70;90.20
57779;BME280;43608;49.486;9.640;2022-08-21T00:38:01;98748.56;;;13.70;90.19
57779;BME280;43608;49.486;9.640;2022-08-21T00:38:32;98748.59;;;13.69;90.14
57779;BME280;43608;49.486;9.640;2022-08-21T00:39:03;98753.03;;;13.68;90.02
57779;BME280;43608;49.486;9.640;2022-08-21T00:39:33;98744.22;;;13.65;90.11
57779;BME280;43608;49.486;9.640;2022-08-21T00:40:06;98744.22;;;13.65;90.03
57779;BME280;43608;49.486;9.640;2022-08-21T00:40:39;98746.91;;;13.63;90.19
57779;BME280;43608;49.486;9.640;2022-08-21T00:41:10;98746.94;;;13.62;90.23
57779;BME280;43608;49.486;9.640;2022-08-21T00:41:41;98750.50;;;13.61;90.11
57779;BME280;43608;49.486;9.640;2022-08-21T00:42:12;98748.72;;;13.60;90.38
57779;BME280;43608;49.486;9.640;2022-08-21T00:42:45;98750.53;;;13.58;90.26
57779;BME280;43608;49.486;9.640;2022-08-21T00:43:16;98745.22;;;13.56;90.38
57779;BME280;43608;49.486;9.640;2022-08-21T00:43:47;98749.69;;;13.55;90.44
57779;BME280;43608;49.486;9.640;2022-08-21T00:44:17;98743.50;;;13.53;90.43
57779;BME280;43608;49.486;9.640;2022-08-21T00:44:48;98741.72;;;13.52;90.45
57779;BME280;43608;49.486;9.640;2022-08-21T00:45:21;98744.38;;;13.52;90.28
57779;BME280;43608;49.486;9.640;2022-08-21T00:45:51;98748.88;;;13.50;90.45
57779;BME280;43608;49.486;9.640;2022-08-21T00:46:23;98750.63;;;13.50;90.23
57779;BME280;43608;49.486;9.640;2022-08-21T00:46:53;98758.66;;;13.48;90.70
57779;BME280;43608;49.486;9.640;2022-08-21T00:47:23;98743.63;;;13.47;90.55
57779;BME280;43608;49.486;9.640;2022-08-21T00:47:54;98740.06;;;13.45;90.48
57779;BME280;43608;49.486;9.640;2022-08-21T00:48:25;98742.75;;;13.45;90.59
57779;BME280;43608;49.486;9.640;2022-08-21T00:48:55;98742.75;;;13.45;90.74
57779;BME280;43608;49.486;9.640;2022-08-21T00:49:26;98745.44;;;13.44;90.53
57779;BME280;43608;49.486;9.640;2022-08-21T00:49:56;98741.00;;;13.43;90.51
57779;BME280;43608;49.486;9.640;2022-08-21T00:50:28;98744.56;;;13.42;90.63
57779;BME280;43608;49.486;9.640;2022-08-21T00:51:10;98735.72;;;13.41;90.58
57779;BME280;43608;49.486;9.640;2022-08-21T00:51:50;98738.38;;;13.41;90.83
57779;BME280;43608;49.486;9.640;2022-08-21T00:52:24;98737.47;;;13.41;90.67
57779;BME280;43608;49.486;9.640;2022-08-21T00:52:54;98735.72;;;13.41;90.72
57779;BME280;43608;49.486;9.640;2022-08-21T00:53:25;98740.13;;;13.41;90.88
57779;BME280;43608;49.486;9.640;2022-08-21T00:53:57;98733.06;;;13.40;90.81
57779;BME280;43608;49.486;9.640;2022-08-21T00:54:31;98733.97;;;13.38;90.62
57779;BME280;43608;49.486;9.640;2022-08-21T00:55:02;98738.41;;;13.38;90.64
57779;BME280;43608;49.486;9.640;2022-08-21T00:55:33;98738.41;;;13.38;90.68
57779;BME280;43608;49.486;9.640;2022-08-21T00:56:04;98735.72;;;13.38;90.78
57779;BME280;43608;49.486;9.640;2022-08-21T00:56:35;98730.41;;;13.38;90.93
57779;BME280;43608;49.486;9.640;2022-08-21T00:57:11;98731.34;;;13.37;90.82
57779;BME280;43608;49.486;9.640;2022-08-21T00:57:45;98737.53;;;13.37;90.79
57779;BME280;43608;49.486;9.640;2022-08-21T00:58:17;98735.75;;;13.36;90.69
57779;BME280;43608;49.486;9.640;2022-08-21T00:58:48;98735.75;;;13.36;90.88
57779;BME280;43608;49.486;9.640;2022-08-21T00:59:19;98738.41;;;13.36;90.94
57779;BME280;43608;49.486;9.640;2022-08-21T00:59:50;98734.88;;;13.36;90.79
57779;BME280;43608;49.486;9.640;2022-08-21T01:00:23;98736.63;;;13.35;90.71
57779;BME280;43608;49.486;9.640;2022-08-21T01:00:54;98740.22;;;13.34;90.71
57779;BME280;43608;49.486;9.640;2022-08-21T01:01:24;98736.63;;;13.35;90.76
57779;BME280;43608;49.486;9.640;2022-08-21T01:01:54;98741.97;;;13.34;90.68
57779;BME280;43608;49.486;9.640;2022-08-21T01:02:24;98729.56;;;13.33;90.76
57779;BME280;43608;49.486;9.640;2022-08-21T01:02:56;98741.13;;;13.32;90.42
57779;BME280;43608;49.486;9.640;2022-08-21T01:03:26;98738.47;;;13.32;90.50
57779;BME280;43608;49.486;9.640;2022-08-21T01:03:57;98739.38;;;13.31;90.35
57779;BME280;43608;49.486;9.640;2022-08-21T01:04:27;98733.19;;;13.29;90.54
57779;BME280;43608;49.486;9.640;2022-08-21T01:04:57;98734.06;;;13.28;90.46
57779;BME280;43608;49.486;9.640;2022-08-21T01:05:28;98738.53;;;13.27;90.26
57779;BME280;43608;49.486;9.640;2022-08-21T01:05:58;98737.66;;;13.25;90.66
57779;BME280;43608;49.486;9.640;2022-08-21T01:06:28;98739.44;;;13.25;90.45
57779;BME280;43608;49.486;9.640;2022-08-21T01:06:59;98737.69;;;13.23;90.60
57779;BME280;43608;49.486;9.640;2022-08-21T01:07:29;98738.59;;;13.22;90.49
57779;BME280;43608;49.486;9.640;2022-08-21T01:08:00;98734.19;;;13.21;90.56
57779;BME280;43608;49.486;9.640;2022-08-21T01:08:30;98737.75;;;13.20;90.65
57779;BME280;43608;49.486;9.640;2022-08-21T01:09:02;98740.44;;;13.19;90.73
57779;BME280;43608;49.486;9.640;2022-08-21T01:09:32;98736.00;;;13.18;90.85
57779;BME280;43608;49.486;9.640;2022-08-21T01:10:03;98744.84;;;13.20;90.79
57779;BME280;43608;49.486;9.640;2022-08-21T01:10:35;98735.13;;;13.17;90.85
57779;BME280;43608;49.486;9.640;2022-08-21T01:11:05;98741.31;;;13.18;90.86
57779;BME280;43608;49.486;9.640;2022-08-21T01:11:35;98737.78;;;13.16;90.70
57779;BME280;43608;49.486;9.640;2022-08-21T01:12:06;98734.25;;;13.15;90.88
57779;BME280;43608;49.486;9.640;2022-08-21T01:12:36;98739.59;;;13.15;90.89
57779;BME280;43608;49.486;9.640;2022-08-21T01:13:07;98738.72;;;13.15;90.72
57779;BME280;43608;49.486;9.640;2022-08-21T01:13:39;98740.47;;;13.14;90.70
57779;BME280;43608;49.486;9.640;2022-08-21T01:14:15;98734.31;;;13.12;90.57
57779;BME280;43608;49.486;9.640;2022-08-21T01:14:47;98736.09;;;13.12;90.65
57779;BME280;43608;49.486;9.640;2022-08-21T01:15:18;98743.19;;;13.11;90.60
57779;BME280;43608;49.486;9.640;2022-08-21T01:15:50;98742.28;;;13.11;90.72
57779;BME280;43608;49.486;9.640;2022-08-21T01:16:22;98733.47;;;13.09;90.69
57779;BME280;43608;49.486;9.640;2022-08-21T01:16:52;98741.47;;;13.09;90.61
57779;BME280;43608;49.486;9.640;2022-08-21T01:17:24;98735.22;;;13.08;90.72
57779;BME280;43608;49.486;9.640;2022-08-21T01:17:54;98731.72;;;13.06;90.61
57779;BME280;43608;49.486;9.640;2022-08-21T01:18:25;98737.91;;;13.06;90.78
57779;BME280;43608;49.486;9.640;2022-08-21T01:18:55;98732.63;;;13.05;90.66
57779;BME280;43608;49.486;9.640;2022-08-21T01:19:26;98737.94;;;13.05;90.84
57779;BME280;43608;49.486;9.640;2022-08-21T01:19:57;98736.19;;;13.04;90.87
57779;BME280;43608;49.486;9.640;2022-08-21T01:20:27;98734.41;;;13.03;90.88
57779;BME280;43608;49.486;9.640;2022-08-21T01:21:30;98734.41;;;13.03;90.78
57779;BME280;43608;49.486;9.640;2022-08-21T01:22:01;98738.00;;;13.02;91.03
57779;BME280;43608;49.486;9.640;2022-08-21T01:22:31;98736.25;;;13.01;90.99
57779;BME280;43608;49.486;9.640;2022-08-21T01:23:02;98733.56;;;13.01;90.82
57779;BME280;43608;49.486;9.640;2022-08-21T01:23:35;98736.25;;;12.99;91.06
57779;BME280;43608;49.486;9.640;2022-08-21T01:24:06;98730.94;;;12.99;90.88
57779;BME280;43608;49.486;9.640;2022-08-21T01:24:36;98733.59;;;12.99;90.94
57779;BME280;43608;49.486;9.640;2022-08-21T01:25:06;98728.28;;;12.98;91.04
57779;BME280;43608;49.486;9.640;2022-08-21T01:25:38;98730.94;;;12.98;90.95
57779;BME280;43608;49.486;9.640;2022-08-21T01:26:08;98727.41;;;12.97;91.17
57779;BME280;43608;49.486;9.640;2022-08-21T01:26:39;98732.72;;;12.97;90.86
57779;BME280;43608;49.486;9.640;2022-08-21T01:27:10;98731.88;;;12.97;91.03
57779;BME280;43608;49.486;9.640;2022-08-21T01:27:40;98733.63;;;12.96;91.21
57779;BME280;43608;49.486;9.640;2022-08-21T01:28:12;98728.31;;;12.96;91.12
57779;BME280;43608;49.486;9.640;2022-08-21T01:28:48;98729.19;;;12.97;91.14
57779;BME280;43608;49.486;9.640;2022-08-21T01:30:10;98730.97;;;12.96;91.26
57779;BME280;43608;49.486;9.640;2022-08-21T01:30:42;98731.00;;;12.95;90.91
57779;BME280;43608;49.486;9.640;2022-08-21T01:31:13;98732.75;;;12.96;90.88
57779;BME280;43608;49.486;9.640;2022-08-21T01:31:44;98727.47;;;12.94;90.86
57779;BME280;43608;49.486;9.640;2022-08-21T01:32:15;98729.22;;;12.94;90.77
57779;BME280;43608;49.486;9.640;2022-08-21T01:32:46;98731.91;;;12.92;90.65
57779;BME280;43608;49.486;9.640;2022-08-21T01:33:18;98732.81;;;12.89;90.66
57779;BME280;43608;49.486;9.640;2022-08-21T01:33:50;98729.31;;;12.89;90.69
57779;BME280;43608;49.486;9.640;2022-08-21T01:34:21;98727.56;;;12.86;90.72
57779;BME280;43608;49.486;9.640;2022-08-21T01:34:52;98728.44;;;12.85;90.62
57779;BME280;43608;49.486;9.640;2022-08-21T01:35:22;98725.81;;;12.84;90.51
57779;BME280;43608;49.486;9.640;2022-08-21T01:35:53;98727.59;;;12.82;90.78
57779;BME280;43608;49.486;9.640;2022-08-21T01:36:23;98730.25;;;12.82;90.65
57779;BME280;43608;49.486;9.640;2022-08-21T01:36:54;98727.63;;;12.80;91.00
57779;BME280;43608;49.486;9.640;2022-08-21T01:37:24;98730.31;;;12.79;90.80
57779;BME280;43608;49.486;9.640;2022-08-21T01:37:54;98731.22;;;12.78;90.70
57779;BME280;43608;49.486;9.640;2022-08-21T01:38:25;98735.66;;;12.77;90.91
57779;BME280;43608;49.486;9.640;2022-08-21T01:38:55;98726.81;;;12.75;91.03
57779;BME280;43608;49.486;9.640;2022-08-21T01:39:26;98729.47;;;12.75;91.20
57779;BME280;43608;49.486;9.640;2022-08-21T01:39:56;98732.16;;;12.73;91.38
57779;BME280;43608;49.486;9.640;2022-08-21T01:40:26;98729.53;;;12.72;91.07
57779;BME280;43608;49.486;9.640;2022-08-21T01:40:57;98726.84;;;12.73;91.13
57779;BME280;43608;49.486;9.640;2022-08-21T01:41:27;98729.50;;;12.73;91.28
57779;BME280;43608;49.486;9.640;2022-08-21T01:41:57;98733.03;;;12.72;91.33
57779;BME280;43608;49.486;9.640;2022-08-21T01:42:27;98731.28;;;12.71;91.13
57779;BME280;43608;49.486;9.640;2022-08-21T01:42:58;98730.41;;;12.71;91.41
57779;BME280;43608;49.486;9.640;2022-08-21T01:43:28;98731.31;;;12.70;91.31
57779;BME280;43608;49.486;9.640;2022-08-21T01:43:58;98728.63;;;12.70;91.06
57779;BME280;43608;49.486;9.640;2022-08-21T01:44:28;98730.44;;;12.69;91.40
57779;BME280;43608;49.486;9.640;2022-08-21T01:44:59;98729.53;;;12.69;91.44
57779;BME280;43608;49.486;9.640;2022-08-21T01:45:29;98729.56;;;12.67;91.29
57779;BME280;43608;49.486;9.640;2022-08-21T01:45:59;98726.94;;;12.66;91.46
57779;BME280;43608;49.486;9.640;2022-08-21T01:46:30;98734.00;;;12.67;91.29
57779;BME280;43608;49.486;9.640;2022-08-21T01:47:03;98726.03;;;12.65;91.36
57779;BME280;43608;49.486;9.640;2022-08-21T01:47:34;98726.94;;;12.66;91.25
57779;BME280;43608;49.486;9.640;2022-08-21T01:48:04;98724.28;;;12.64;91.27
57779;BME280;43608;49.486;9.640;2022-08-21T01:48:35;98734.03;;;12.64;91.36
57779;BME280;43608;49.486;9.640;2022-08-21T01:49:05;98730.50;;;12.63;91.33
57779;BME280;43608;49.486;9.640;2022-08-21T01:49:36;98732.25;;;12.63;91.19
57779;BME280;43608;49.486;9.640;2022-08-21T01:50:07;98733.16;;;12.63;91.25
57779;BME280;43608;49.486;9.640;2022-08-21T01:50:38;98730.53;;;12.62;91.23
57779;BME280;43608;49.486;9.640;2022-08-21T01:51:09;98728.75;;;12.61;91.24
57779;BME280;43608;49.486;9.640;2022-08-21T01:51:39;98727.00;;;12.60;91.27
57779;BME280;43608;49.486;9.640;2022-08-21T01:52:10;98732.31;;;12.60;91.23
57779;BME280;43608;49.486;9.640;2022-08-21T01:52:41;98726.16;;;12.58;91.26
57779;BME280;43608;49.486;9.640;2022-08-21T01:53:11;98730.53;;;12.59;91.40
57779;BME280;43608;49.486;9.640;2022-08-21T01:53:41;98736.78;;;12.58;91.23
57779;BME280;43608;49.486;9.640;2022-08-21T01:54:12;98731.44;;;12.56;91.40
57779;BME280;43608;49.486;9.640;2022-08-21T01:54:42;98726.19;;;12.53;91.44
57779;BME280;43608;49.486;9.640;2022-08-21T01:55:13;98732.38;;;12.55;91.71
57779;BME280;43608;49.486;9.640;2022-08-21T01:55:43;98730.63;;;12.52;91.56
57779;BME280;43608;49.486;9.640;2022-08-21T01:56:14;98730.63;;;12.52;91.31
57779;BME280;43608;49.486;9.640;2022-08-21T01:56:46;98729.75;;;12.50;91.41
57779;BME280;43608;49.486;9.640;2022-08-21T01:57:16;98733.28;;;12.51;91.50
57779;BME280;43608;49.486;9.640;2022-08-21T01:57:47;98730.66;;;12.49;91.63
57779;BME280;43608;49.486;9.640;2022-08-21T01:58:18;98730.66;;;12.49;91.64
57779;BME280;43608;49.486;9.640;2022-08-21T01:58:48;98734.19;;;12.48;91.57
57779;BME280;43608;49.486;9.640;2022-08-21T01:59:19;98728.00;;;12.48;91.62
57779;BME280;43608;49.486;9.640;2022-08-21T01:59:50;98728.03;;;12.46;91.75
57779;BME280;43608;49.486;9.640;2022-08-21T02:00:21;98726.28;;;12.45;91.98
57779;BME280;43608;49.486;9.640;2022-08-21T02:00:52;98728.94;;;12.44;91.92
57779;BME280;43608;49.486;9.640;2022-08-21T02:01:23;98725.41;;;12.43;91.90
57779;BME280;43608;49.486;9.640;2022-08-21T02:01:54;98726.28;;;12.44;91.90
57779;BME280;43608;49.486;9.640;2022-08-21T02:02:25;98726.31;;;12.42;92.10
57779;BME280;43608;49.486;9.640;2022-08-21T02:02:55;98728.06;;;12.42;92.05
57779;BME280;43608;49.486;9.640;2022-08-21T02:03:25;98727.22;;;12.41;91.92
57779;BME280;43608;49.486;9.640;2022-08-21T02:03:56;98726.31;;;12.40;91.97
57779;BME280;43608;49.486;9.640;2022-08-21T02:04:29;98730.75;;;12.40;91.98
57779;BME280;43608;49.486;9.640;2022-08-21T02:05:00;98726.31;;;12.39;92.31
57779;BME280;43608;49.486;9.640;2022-08-21T02:05:30;98722.81;;;12.38;92.11
57779;BME280;43608;49.486;9.640;2022-08-21T02:06:01;98721.03;;;12.37;92.17
57779;BME280;43608;49.486;9.640;2022-08-21T02:06:31;98719.28;;;12.36;92.18
57779;BME280;43608;49.486;9.640;2022-08-21T02:07:02;98721.94;;;12.36;91.92
57779;BME280;43608;49.486;9.640;2022-08-21T02:07:39;98721.97;;;12.33;92.02
57779;BME280;43608;49.486;9.640;2022-08-21T02:08:10;98718.44;;;12.34;92.17
57779;BME280;43608;49.486;9.640;2022-08-21T02:08:41;98729.06;;;12.34;91.86
57779;BME280;43608;49.486;9.640;2022-08-21T02:09:11;98714.03;;;12.32;92.18
57779;BME280;43608;49.486;9.640;2022-08-21T02:09:42;98717.53;;;12.32;92.04
57779;BME280;43608;49.486;9.640;2022-08-21T02:10:13;98719.34;;;12.32;92.10
57779;BME280;43608;49.486;9.640;2022-08-21T02:10:44;98722.00;;;12.32;91.94
57779;BME280;43608;49.486;9.640;2022-08-21T02:11:16;98724.66;;;12.32;92.08
57779;BME280;43608;49.486;9.640;2022-08-21T02:11:47;98715.78;;;12.31;91.95
57779;BME280;43608;49.486;9.640;2022-08-21T02:12:17;98722.03;;;12.30;92.06
57779;BME280;43608;49.486;9.640;2022-08-21T02:12:48;98719.38;;;12.30;91.90
57779;BME280;43608;49.486;9.640;2022-08-21T02:13:19;98721.13;;;12.28;92.11
57779;BME280;43608;49.486;9.640;2022-08-21T02:13:49;98718.47;;;12.28;92.03
57779;BME280;43608;49.486;9.640;2022-08-21T02:14:19;98720.28;;;12.28;92.05
57779;BME280;43608;49.486;9.640;2022-08-21T02:14:50;98721.16;;;12.27;91.87
57779;BME280;43608;49.486;9.640;2022-08-21T02:15:20;98720.25;;;12.26;91.83
57779;BME280;43608;49.486;9.640;2022-08-21T02:15:50;98722.06;;;12.26;92.10
57779;BME280;43608;49.486;9.640;2022-08-21T02:16:20;98723.84;;;12.23;91.98
57779;BME280;43608;49.486;9.640;2022-08-21T02:16:51;98714.13;;;12.22;91.99
57779;BME280;43608;49.486;9.640;2022-08-21T02:17:21;98721.19;;;12.22;92.10
57779;BME280;43608;49.486;9.640;2022-08-21T02:17:53;98719.44;;;12.21;92.11
57779;BME280;43608;49.486;9.640;2022-08-21T02:18:24;98719.44;;;12.19;92.08
57779;BME280;43608;49.486;9.640;2022-08-21T02:18:54;98716.78;;;12.19;92.20
57779;BME280;43608;49.486;9.640;2022-08-21T02:19:25;98716.78;;;12.19;92.22
57779;BME280;43608;49.486;9.640;2022-08-21T02:19:55;98716.81;;;12.18;91.99
57779;BME280;43608;49.486;9.640;2022-08-21T02:20:32;98718.59;;;12.17;92.12
57779;BME280;43608;49.486;9.640;2022-08-21T02:21:04;98717.72;;;12.15;92.28
57779;BME280;43608;49.486;9.640;2022-08-21T02:21:35;98716.88;;;12.15;92.26
57779;BME280;43608;49.486;9.640;2022-08-21T02:22:05;98718.63;;;12.14;92.40
57779;BME280;43608;49.486;9.640;2022-08-21T02:22:35;98717.75;;;12.14;92.35
57779;BME280;43608;49.486;9.640;2022-08-21T02:23:07;98714.19;;;12.13;92.22
57779;BME280;43608;49.486;9.640;2022-08-21T02:23:37;98715.13;;;12.12;92.10
57779;BME280;43608;49.486;9.640;2022-08-21T02:24:08;98710.69;;;12.11;92.18
57779;BME280;43608;49.486;9.640;2022-08-21T02:24:38;98711.56;;;12.12;92.25
57779;BME280;43608;49.486;9.640;2022-08-21T02:25:09;98716.03;;;12.10;92.26
57779;BME280;43608;49.486;9.640;2022-08-21T02:25:39;98713.38;;;12.10;92.13
57779;BME280;43608;49.486;9.640;2022-08-21T02:26:10;98714.25;;;12.10;92.27
57779;BME280;43608;49.486;9.640;2022-08-21T02:26:40;98711.59;;;12.09;92.48
57779;BME280;43608;49.486;9.640;2022-08-21T02:27:11;98710.69;;;12.08;92.24
57779;BME280;43608;49.486;9.640;2022-08-21T02:27:42;98710.69;;;12.08;92.17
57779;BME280;43608;49.486;9.640;2022-08-21T02:28:13;98718.69;;;12.06;92.16
57779;BME280;43608;49.486;9.640;2022-08-21T02:28:44;98717.81;;;12.06;92.09
57779;BME280;43608;49.486;9.640;2022-08-21T02:29:14;98715.16;;;12.06;92.02
57779;BME280;43608;49.486;9.640;2022-08-21T02:29:44;98715.19;;;12.04;92.13
57779;BME280;43608;49.486;9.640;2022-08-21T02:30:17;98716.94;;;12.04;91.83
57779;BME280;43608;49.486;9.640;2022-08-21T02:30:48;98716.06;;;12.03;92.04
57779;BME280;43608;49.486;9.640;2022-08-21T02:31:19;98713.41;;;12.03;92.05
57779;BME280;43608;49.486;9.640;2022-08-21T02:31:49;98713.44;;;12.02;91.77
57779;BME280;43608;49.486;9.640;2022-08-21T02:32:19;98709.03;;;12.01;92.13
57779;BME280;43608;49.486;9.640;2022-08-21T02:32:51;98714.34;;;11.99;91.81
57779;BME280;43608;49.486;9.640;2022-08-21T02:33:22;98714.38;;;11.98;91.72
57779;BME280;43608;49.486;9.640;2022-08-21T02:33:52;98716.13;;;11.97;91.62
57779;BME280;43608;49.486;9.640;2022-08-21T02:34:22;98716.16;;;11.96;91.72
57779;BME280;43608;49.486;9.640;2022-08-21T02:34:53;98709.06;;;11.93;91.73
57779;BME280;43608;49.486;9.640;2022-08-21T02:35:23;98709.03;;;11.95;91.65
57779;BME280;43608;49.486;9.640;2022-08-21T02:35:54;98713.50;;;11.93;91.89
57779;BME280;43608;49.486;9.640;2022-08-21T02:36:24;98714.38;;;11.92;91.82
57779;BME280;43608;49.486;9.640;2022-08-21T02:36:55;98716.16;;;11.89;91.76
57779;BME280;43608;49.486;9.640;2022-08-21T02:37:25;98711.75;;;11.88;92.04
57779;BME280;43608;49.486;9.640;2022-08-21T02:37:57;98717.94;;;11.89;92.03
57779;BME280;43608;49.486;9.640;2022-08-21T02:38:28;98713.53;;;11.88;91.87
57779;BME280;43608;49.486;9.640;2022-08-21T02:38:59;98711.75;;;11.87;91.89
57779;BME280;43608;49.486;9.640;2022-08-21T02:39:29;98713.53;;;11.86;91.80
57779;BME280;43608;49.486;9.640;2022-08-21T02:40:00;98717.09;;;11.85;91.87
57779;BME280;43608;49.486;9.640;2022-08-21T02:40:32;98711.81;;;11.84;91.99
57779;BME280;43608;49.486;9.640;2022-08-21T02:41:03;98713.56;;;11.83;92.09
57779;BME280;43608;49.486;9.640;2022-08-21T02:41:33;98715.34;;;11.83;92.04
57779;BME280;43608;49.486;9.640;2022-08-21T02:42:04;98715.38;;;11.81;92.12
57779;BME280;43608;49.486;9.640;2022-08-21T02:42:34;98711.81;;;11.79;92.11
57779;BME280;43608;49.486;9.640;2022-08-21T02:43:05;98710.06;;;11.78;92.07
57779;BME280;43608;49.486;9.640;2022-08-21T02:43:36;98718.94;;;11.79;92.25
57779;BME280;43608;49.486;9.640;2022-08-21T02:44:09;98710.06;;;11.78;92.12
57779;BME280;43608;49.486;9.640;2022-08-21T02:44:39;98714.53;;;11.76;92.23
57779;BME280;43608;49.486;9.640;2022-08-21T02:45:10;98721.59;;;11.76;92.21